Private Wetterstation Wechselburg
Wetterdaten: Sonntag, 10.03.2013
Datum Zeit Temp. +2m Bodentemp. Temp.+5cm Temp. Wind Windchill X Diff Temp. Feuchte +2m Feuchte +5cm Sonnenschein Luftdruck Regen Wind Richtung Richtung Sonnenschein UV Taupunkt Windchill Windben
10.03.2013 00:00 0,4 C 9,7 C 1,2 C 0,7 C 0,7 C 0,3 C 91 % 92 % 0 % 1001,9 hPa 0,0 l/m 0,0 km/h (0 Bft) O-NO 67 0 min 0,0 UV-I -0,9 C 0,7 C 0,0 km/h (0 Bft)
10.03.2013 00:05 0,5 C 9,7 C 1,1 C 0,6 C 0,6 C 0,1 C 91 % 92 % 0 % 1001,9 hPa 0,0 l/m 0,0 km/h (0 Bft) N-NO 22 0 min 0,0 UV-I -0,8 C 0,6 C 0,0 km/h (0 Bft)
10.03.2013 00:10 0,3 C 9,7 C 0,9 C 0,3 C 0,3 C 0,0 C 91 % 92 % 0 % 1001,9 hPa 0,0 l/m 0,0 km/h (0 Bft) O-NO 67 0 min 0,0 UV-I -1,0 C 0,3 C 0,0 km/h (0 Bft)
10.03.2013 00:15 0,3 C 9,7 C 0,8 C 0,3 C 0,3 C 0,0 C 91 % 92 % 0 % 1001,6 hPa 0,0 l/m 0,0 km/h (0 Bft) N-NW 337 0 min 0,0 UV-I -1,0 C 0,3 C 0,0 km/h (0 Bft)
10.03.2013 00:20 0,1 C 9,7 C 0,8 C 0,2 C 0,2 C 0,1 C 91 % 92 % 0 % 1001,6 hPa 0,0 l/m 0,0 km/h (0 Bft) O-NO 67 0 min 0,0 UV-I -1,2 C 0,2 C 0,0 km/h (0 Bft)
10.03.2013 00:25 0,1 C 9,7 C 0,9 C 0,3 C 0,3 C 0,2 C 91 % 92 % 0 % 1001,6 hPa 0,0 l/m 0,0 km/h (0 Bft) O-NO 67 0 min 0,0 UV-I -1,2 C 0,3 C 0,0 km/h (0 Bft)
10.03.2013 00:30 0,0 C 9,7 C 1,1 C 0,5 C 0,5 C 0,5 C 91 % 92 % 0 % 1001,6 hPa 0,0 l/m 0,0 km/h (0 Bft) SO 135 0 min 0,0 UV-I -1,3 C 0,5 C 0,0 km/h (0 Bft)
10.03.2013 00:35 0,0 C 9,7 C 1,1 C 0,7 C 0,7 C 0,7 C 91 % 92 % 0 % 1001,6 hPa 0,0 l/m 0,0 km/h (0 Bft) O-SO 112 0 min 0,0 UV-I -1,3 C 0,7 C 0,0 km/h (0 Bft)
10.03.2013 00:41 0,1 C 9,7 C 1,1 C 0,9 C 0,9 C 0,8 C 91 % 92 % 0 % 1001,6 hPa 0,0 l/m 0,0 km/h (0 Bft) N 0 0 min 0,0 UV-I -1,2 C 0,9 C 0,0 km/h (0 Bft)
10.03.2013 01:00 0,2 C 9,7 C 1,2 C 1,1 C 1,1 C 0,9 C 91 % 92 % 0 % 1001,6 hPa 0,0 l/m 0,0 km/h (0 Bft) O 90 0 min 0,0 UV-I -1,1 C 1,1 C 0,0 km/h (0 Bft)
10.03.2013 01:05 0,3 C 9,7 C 1,2 C 1,0 C 1,0 C 0,7 C 91 % 92 % 0 % 1001,6 hPa 0,0 l/m 0,2 km/h (0 Bft) N-NW 337 0 min 0,0 UV-I -1,0 C 1,0 C 0,0 km/h (0 Bft)
10.03.2013 01:10 0,3 C 9,7 C 1,2 C 1,0 C 1,0 C 0,7 C 91 % 92 % 0 % 1001,6 hPa 0,0 l/m 0,2 km/h (0 Bft) O-SO 112 0 min 0,0 UV-I -1,0 C 1,0 C 0,0 km/h (0 Bft)
10.03.2013 01:15 0,3 C 9,7 C 1,1 C 0,9 C 0,9 C 0,6 C 91 % 92 % 0 % 1001,3 hPa 0,0 l/m 0,2 km/h (0 Bft) S 180 0 min 0,0 UV-I -1,0 C 0,9 C 2,7 km/h (1 Bft)
10.03.2013 01:20 0,3 C 9,7 C 1,2 C 0,9 C 0,9 C 0,6 C 91 % 92 % 0 % 1001,3 hPa 0,0 l/m 0,2 km/h (0 Bft) N-NO 22 0 min 0,0 UV-I -1,0 C 0,9 C 0,0 km/h (0 Bft)
10.03.2013 01:25 0,3 C 9,7 C 1,2 C 0,9 C 0,9 C 0,6 C 91 % 92 % 0 % 1001,3 hPa 0,0 l/m 0,2 km/h (0 Bft) O 90 0 min 0,0 UV-I -1,0 C 0,9 C 0,0 km/h (0 Bft)
10.03.2013 01:30 0,2 C 9,7 C 1,2 C 0,9 C 0,9 C 0,7 C 91 % 92 % 0 % 1001,3 hPa 0,0 l/m 0,2 km/h (0 Bft) O 90 0 min 0,0 UV-I -1,1 C 0,9 C 0,0 km/h (0 Bft)
10.03.2013 01:35 0,3 C 9,7 C 1,2 C 0,9 C 0,9 C 0,6 C 91 % 92 % 0 % 1001,1 hPa 0,0 l/m 0,2 km/h (0 Bft) O-SO 112 0 min 0,0 UV-I -1,0 C 0,9 C 0,0 km/h (0 Bft)
10.03.2013 01:40 0,3 C 9,7 C 1,2 C 1,0 C 1,0 C 0,7 C 92 % 92 % 0 % 1001,1 hPa 0,0 l/m 0,2 km/h (0 Bft) O 90 0 min 0,0 UV-I -0,8 C 1,0 C 0,0 km/h (0 Bft)
10.03.2013 01:45 0,3 C 9,7 C 1,2 C 1,0 C 1,0 C 0,7 C 91 % 92 % 0 % 1001,1 hPa 0,0 l/m 0,0 km/h (0 Bft) O-NO 67 0 min 0,0 UV-I -1,0 C 1,0 C 0,0 km/h (0 Bft)
10.03.2013 01:50 0,3 C 9,7 C 1,2 C 1,0 C 1,0 C 0,7 C 92 % 92 % 0 % 1001,1 hPa 0,0 l/m 0,0 km/h (0 Bft) N-NO 22 0 min 0,0 UV-I -0,8 C 1,0 C 0,0 km/h (0 Bft)
10.03.2013 01:55 0,3 C 9,7 C 1,3 C 1,0 C 1,0 C 0,7 C 92 % 92 % 0 % 1001,1 hPa 0,0 l/m 0,0 km/h (0 Bft) N-NO 22 0 min 0,0 UV-I -0,8 C 1,0 C 0,0 km/h (0 Bft)
10.03.2013 02:00 0,3 C 9,7 C 1,3 C 1,1 C 1,1 C 0,8 C 92 % 92 % 0 % 1001,1 hPa 0,0 l/m 0,0 km/h (0 Bft) N 360 0 min 0,0 UV-I -0,8 C 1,1 C 0,0 km/h (0 Bft)
10.03.2013 02:05 0,2 C 9,7 C 1,4 C 1,2 C 1,2 C 1,0 C 92 % 92 % 0 % 1001,1 hPa 0,0 l/m 0,0 km/h (0 Bft) NW 315 0 min 0,0 UV-I -0,9 C 1,2 C 0,0 km/h (0 Bft)
10.03.2013 02:10 0,3 C 9,7 C 1,5 C 1,3 C 1,3 C 1,0 C 92 % 92 % 0 % 1001,1 hPa 0,0 l/m 0,0 km/h (0 Bft) W 270 0 min 0,0 UV-I -0,8 C 1,3 C 0,0 km/h (0 Bft)
10.03.2013 02:15 0,3 C 9,7 C 1,4 C 1,3 C 1,3 C 1,0 C 92 % 92 % 0 % 1001,0 hPa 0,0 l/m 0,0 km/h (0 Bft) S 180 0 min 0,0 UV-I -0,8 C 1,3 C 0,0 km/h (0 Bft)
10.03.2013 02:20 0,4 C 9,7 C 1,4 C 1,3 C 1,3 C 0,9 C 92 % 92 % 0 % 1001,0 hPa 0,0 l/m 0,2 km/h (0 Bft) NW 315 0 min 0,0 UV-I -0,7 C 1,3 C 0,0 km/h (0 Bft)
10.03.2013 02:25 0,4 C 9,7 C 1,4 C 1,4 C 1,4 C 1,0 C 92 % 92 % 0 % 1001,0 hPa 0,0 l/m 0,2 km/h (0 Bft) SO 135 0 min 0,0 UV-I -0,7 C 1,4 C 0,0 km/h (0 Bft)
10.03.2013 02:30 0,5 C 9,7 C 1,5 C 1,4 C 1,4 C 0,9 C 92 % 92 % 0 % 1001,0 hPa 0,0 l/m 0,0 km/h (0 Bft) SO 135 0 min 0,0 UV-I -0,6 C 1,4 C 0,0 km/h (0 Bft)
10.03.2013 02:35 0,5 C 9,7 C 1,5 C 1,4 C 1,4 C 0,9 C 92 % 92 % 0 % 1000,6 hPa 0,0 l/m 0,0 km/h (0 Bft) O-SO 112 0 min 0,0 UV-I -0,6 C 1,4 C 0,0 km/h (0 Bft)
10.03.2013 02:40 0,4 C 9,7 C 1,5 C 1,4 C 1,4 C 1,0 C 92 % 92 % 0 % 1000,6 hPa 0,0 l/m 0,0 km/h (0 Bft) O-SO 112 0 min 0,0 UV-I -0,7 C 1,4 C 0,0 km/h (0 Bft)
10.03.2013 02:45 0,4 C 9,7 C 1,5 C 1,4 C 1,4 C 1,0 C 92 % 92 % 0 % 1000,6 hPa 0,0 l/m 0,0 km/h (0 Bft) SO 135 0 min 0,0 UV-I -0,7 C 1,4 C 0,0 km/h (0 Bft)
10.03.2013 02:50 0,4 C 9,7 C 1,5 C 1,3 C 1,3 C 0,9 C 92 % 92 % 0 % 1000,6 hPa 0,0 l/m 0,0 km/h (0 Bft) O-NO 67 0 min 0,0 UV-I -0,7 C 1,3 C 0,0 km/h (0 Bft)
10.03.2013 02:55 0,4 C 9,7 C 1,5 C 1,3 C 1,3 C 0,9 C 92 % 92 % 0 % 1000,8 hPa 0,0 l/m 0,0 km/h (0 Bft) O-NO 67 0 min 0,0 UV-I -0,7 C 1,3 C 0,0 km/h (0 Bft)
10.03.2013 03:00 0,4 C 9,7 C 1,5 C 1,3 C 1,3 C 0,9 C 92 % 92 % 0 % 1000,8 hPa 0,0 l/m 0,0 km/h (0 Bft) NO 45 0 min 0,0 UV-I -0,7 C 1,3 C 0,0 km/h (0 Bft)
10.03.2013 03:05 0,4 C 9,7 C 1,5 C 1,3 C 1,3 C 0,9 C 92 % 92 % 0 % 1000,8 hPa 0,0 l/m 0,0 km/h (0 Bft) NO 45 0 min 0,0 UV-I -0,7 C 1,3 C 0,0 km/h (0 Bft)
10.03.2013 03:10 0,4 C 9,7 C 1,5 C 1,3 C 1,3 C 0,9 C 92 % 92 % 0 % 1000,8 hPa 0,0 l/m 0,0 km/h (0 Bft) O-SO 112 0 min 0,0 UV-I -0,7 C 1,3 C 0,0 km/h (0 Bft)
10.03.2013 03:15 0,4 C 9,7 C 1,6 C 1,4 C 1,4 C 1,0 C 92 % 92 % 0 % 999,9 hPa 0,0 l/m 0,2 km/h (0 Bft) O 90 0 min 0,0 UV-I -0,7 C 1,4 C 2,1 km/h (1 Bft)
10.03.2013 03:20 0,5 C 9,7 C 1,7 C 1,5 C 1,5 C 1,0 C 92 % 92 % 0 % 999,9 hPa 0,0 l/m 0,3 km/h (0 Bft) SO 135 0 min 0,0 UV-I -0,6 C 1,5 C 0,0 km/h (0 Bft)
10.03.2013 03:25 0,5 C 9,7 C 1,6 C 1,5 C 1,5 C 1,0 C 92 % 92 % 0 % 999,9 hPa 0,7 l/m 0,5 km/h (0 Bft) S-SW 202 0 min 0,0 UV-I -0,6 C 1,5 C 3,1 km/h (1 Bft)
10.03.2013 03:30 0,5 C 9,7 C 1,7 C 1,6 C 1,6 C 1,1 C 92 % 92 % 0 % 999,9 hPa 0,0 l/m 0,5 km/h (0 Bft) W-SW 247 0 min 0,0 UV-I -0,6 C 1,6 C 0,0 km/h (0 Bft)
10.03.2013 03:35 0,6 C 9,7 C 1,6 C 1,6 C 1,6 C 1,0 C 92 % 92 % 0 % 1000,0 hPa 0,0 l/m 0,3 km/h (0 Bft) W-SW 247 0 min 0,0 UV-I -0,5 C 1,6 C 0,0 km/h (0 Bft)
10.03.2013 03:40 0,7 C 9,7 C 1,6 C 1,6 C 1,6 C 0,9 C 92 % 92 % 0 % 1000,0 hPa 0,0 l/m 0,0 km/h (0 Bft) W-SW 247 0 min 0,0 UV-I -0,4 C 1,6 C 0,0 km/h (0 Bft)
10.03.2013 03:45 0,7 C 9,7 C 1,6 C 1,6 C 1,6 C 0,9 C 92 % 92 % 0 % 1000,0 hPa 0,0 l/m 0,0 km/h (0 Bft) NO 45 0 min 0,0 UV-I -0,4 C 1,6 C 0,0 km/h (0 Bft)
10.03.2013 03:50 0,7 C 9,7 C 1,6 C 1,5 C 1,5 C 0,8 C 92 % 92 % 0 % 1000,0 hPa 0,0 l/m 0,0 km/h (0 Bft) N-NW 337 0 min 0,0 UV-I -0,4 C 1,5 C 0,0 km/h (0 Bft)
10.03.2013 03:55 0,7 C 9,7 C 1,6 C 1,5 C 1,5 C 0,8 C 92 % 93 % 0 % 999,8 hPa 0,0 l/m 0,0 km/h (0 Bft) N-NO 22 0 min 0,0 UV-I -0,4 C 1,5 C 0,0 km/h (0 Bft)
10.03.2013 04:00 0,7 C 9,7 C 1,6 C 1,6 C 1,6 C 0,9 C 92 % 93 % 0 % 999,8 hPa 0,0 l/m 0,0 km/h (0 Bft) N-NW 337 0 min 0,0 UV-I -0,4 C 1,6 C 0,0 km/h (0 Bft)
10.03.2013 04:05 0,7 C 9,7 C 1,7 C 1,5 C 1,5 C 0,8 C 92 % 93 % 0 % 999,8 hPa 0,0 l/m 0,0 km/h (0 Bft) N-NW 337 0 min 0,0 UV-I -0,4 C 1,5 C 0,0 km/h (0 Bft)
10.03.2013 04:10 0,7 C 9,7 C 1,6 C 1,5 C 1,5 C 0,8 C 92 % 93 % 0 % 999,8 hPa 0,0 l/m 0,0 km/h (0 Bft) N-NW 337 0 min 0,0 UV-I -0,4 C 1,5 C 0,0 km/h (0 Bft)
10.03.2013 04:15 0,7 C 9,7 C 1,5 C 1,4 C 1,4 C 0,7 C 92 % 93 % 0 % 999,7 hPa 0,0 l/m 0,0 km/h (0 Bft) NW 315 0 min 0,0 UV-I -0,4 C 1,4 C 0,0 km/h (0 Bft)
10.03.2013 04:20 0,7 C 9,7 C 1,4 C 1,0 C 1,0 C 0,3 C 92 % 93 % 0 % 999,7 hPa 0,0 l/m 0,0 km/h (0 Bft) NW 315 0 min 0,0 UV-I -0,4 C 1,0 C 0,0 km/h (0 Bft)
10.03.2013 04:25 0,5 C 9,6 C 1,3 C 0,8 C 0,8 C 0,3 C 92 % 93 % 0 % 999,7 hPa 0,0 l/m 0,0 km/h (0 Bft) NW 315 0 min 0,0 UV-I -0,6 C 0,8 C 0,0 km/h (0 Bft)
10.03.2013 04:30 0,4 C 9,6 C 1,2 C 0,7 C 0,7 C 0,3 C 92 % 93 % 0 % 999,7 hPa 0,0 l/m 0,0 km/h (0 Bft) W-SW 247 0 min 0,0 UV-I -0,7 C 0,7 C 0,0 km/h (0 Bft)
10.03.2013 04:35 0,4 C 9,6 C 1,2 C 0,7 C 0,7 C 0,3 C 92 % 93 % 0 % 999,4 hPa 0,0 l/m 0,0 km/h (0 Bft) W-SW 247 0 min 0,0 UV-I -0,7 C 0,7 C 0,0 km/h (0 Bft)
10.03.2013 04:40 0,4 C 9,6 C 1,2 C 0,7 C 0,7 C 0,3 C 92 % 93 % 0 % 999,4 hPa 0,0 l/m 0,0 km/h (0 Bft) SW 225 0 min 0,0 UV-I -0,7 C 0,7 C 0,0 km/h (0 Bft)
10.03.2013 04:45 0,3 C 9,6 C 1,2 C 0,7 C 0,7 C 0,4 C 92 % 93 % 0 % 999,4 hPa 0,0 l/m 0,0 km/h (0 Bft) S-SW 202 0 min 0,0 UV-I -0,8 C 0,7 C 0,0 km/h (0 Bft)
10.03.2013 04:50 0,4 C 9,6 C 1,2 C 0,8 C 0,8 C 0,4 C 92 % 93 % 0 % 999,4 hPa 0,0 l/m 0,0 km/h (0 Bft) S-SO 157 0 min 0,0 UV-I -0,7 C 0,8 C 0,0 km/h (0 Bft)
10.03.2013 04:55 0,3 C 9,6 C 1,2 C 0,8 C 0,8 C 0,5 C 92 % 93 % 0 % 999,8 hPa 0,0 l/m 0,0 km/h (0 Bft) SW 225 0 min 0,0 UV-I -0,8 C 0,8 C 0,0 km/h (0 Bft)
10.03.2013 05:00 0,3 C 9,6 C 1,3 C 0,9 C 0,9 C 0,6 C 92 % 93 % 0 % 999,8 hPa 0,0 l/m 0,0 km/h (0 Bft) S-SW 202 0 min 0,0 UV-I -0,8 C 0,9 C 0,0 km/h (0 Bft)
10.03.2013 05:05 0,3 C 9,6 C 1,2 C 1,0 C 1,0 C 0,7 C 92 % 93 % 0 % 999,8 hPa 0,0 l/m 0,0 km/h (0 Bft) W-SW 247 0 min 0,0 UV-I -0,8 C 1,0 C 0,0 km/h (0 Bft)
10.03.2013 05:10 0,3 C 9,6 C 1,2 C 1,0 C 1,0 C 0,7 C 92 % 93 % 0 % 999,8 hPa 0,0 l/m 0,0 km/h (0 Bft) W-SW 247 0 min 0,0 UV-I -0,8 C 1,0 C 0,0 km/h (0 Bft)
10.03.2013 05:15 0,3 C 9,6 C 1,2 C 1,0 C 1,0 C 0,7 C 92 % 93 % 0 % 999,5 hPa 0,0 l/m 0,0 km/h (0 Bft) S-SW 202 0 min 0,0 UV-I -0,8 C 1,0 C 0,0 km/h (0 Bft)
10.03.2013 05:20 0,3 C 9,6 C 1,2 C 1,0 C 1,0 C 0,7 C 92 % 93 % 0 % 999,5 hPa 0,0 l/m 0,0 km/h (0 Bft) W-SW 247 0 min 0,0 UV-I -0,8 C 1,0 C 0,0 km/h (0 Bft)
10.03.2013 05:25 0,3 C 9,6 C 1,1 C 0,8 C 0,8 C 0,5 C 92 % 93 % 0 % 999,5 hPa 0,0 l/m 0,0 km/h (0 Bft) SW 225 0 min 0,0 UV-I -0,8 C 0,8 C 0,0 km/h (0 Bft)
10.03.2013 05:30 0,2 C 9,6 C 1,0 C 0,6 C 0,6 C 0,4 C 92 % 93 % 0 % 999,5 hPa 0,0 l/m 0,0 km/h (0 Bft) S-SW 202 0 min 0,0 UV-I -0,9 C 0,6 C 0,0 km/h (0 Bft)
10.03.2013 05:35 0,3 C 9,6 C 0,8 C 0,5 C 0,5 C 0,2 C 92 % 93 % 0 % 998,9 hPa 0,0 l/m 0,0 km/h (0 Bft) S 180 0 min 0,0 UV-I -0,8 C 0,5 C 0,0 km/h (0 Bft)
10.03.2013 05:40 0,3 C 9,6 C 0,8 C 0,5 C 0,5 C 0,2 C 92 % 93 % 0 % 998,9 hPa 0,0 l/m 0,0 km/h (0 Bft) SO 135 0 min 0,0 UV-I -0,8 C 0,5 C 0,0 km/h (0 Bft)
10.03.2013 05:45 0,3 C 9,6 C 0,7 C 0,6 C 0,6 C 0,3 C 92 % 93 % 0 % 998,9 hPa 0,0 l/m 0,0 km/h (0 Bft) O 90 0 min 0,0 UV-I -0,8 C 0,6 C 0,0 km/h (0 Bft)
10.03.2013 05:50 0,1 C 9,6 C 0,9 C 0,7 C 0,7 C 0,6 C 92 % 93 % 0 % 998,9 hPa 0,0 l/m 0,0 km/h (0 Bft) O-NO 67 0 min 0,0 UV-I -1,0 C 0,7 C 0,0 km/h (0 Bft)
10.03.2013 05:55 0,1 C 9,6 C 0,9 C 0,8 C 0,8 C 0,7 C 92 % 93 % 0 % 998,8 hPa 0,0 l/m 0,0 km/h (0 Bft) O-NO 67 0 min 0,0 UV-I -1,0 C 0,8 C 0,0 km/h (0 Bft)
10.03.2013 06:00 0,3 C 9,6 C 1,1 C 1,0 C 1,0 C 0,7 C 92 % 93 % 0 % 998,8 hPa 0,0 l/m 0,0 km/h (0 Bft) NO 45 0 min 0,0 UV-I -0,8 C 1,0 C 0,0 km/h (0 Bft)
10.03.2013 06:05 0,3 C 9,6 C 1,1 C 1,1 C 1,1 C 0,8 C 92 % 93 % 0 % 998,8 hPa 0,0 l/m 0,0 km/h (0 Bft) O 90 0 min 0,0 UV-I -0,8 C 1,1 C 0,0 km/h (0 Bft)
10.03.2013 06:10 0,2 C 9,6 C 1,0 C 1,1 C 1,1 C 0,9 C 92 % 93 % 0 % 998,8 hPa 0,0 l/m 0,0 km/h (0 Bft) O 90 0 min 0,0 UV-I -0,9 C 1,1 C 0,0 km/h (0 Bft)
10.03.2013 06:15 0,2 C 9,6 C 0,9 C 1,0 C 1,0 C 0,8 C 92 % 93 % 0 % 998,6 hPa 0,0 l/m 0,0 km/h (0 Bft) O-NO 67 0 min 0,0 UV-I -0,9 C 1,0 C 0,0 km/h (0 Bft)
10.03.2013 06:20 0,3 C 9,6 C 0,9 C 1,1 C 1,1 C 0,8 C 92 % 93 % 0 % 998,6 hPa 0,0 l/m 0,0 km/h (0 Bft) NO 45 0 min 0,0 UV-I -0,8 C 1,1 C 0,0 km/h (0 Bft)
10.03.2013 06:25 0,3 C 9,6 C 1,1 C 1,1 C 1,1 C 0,8 C 92 % 93 % 0 % 998,6 hPa 0,0 l/m 0,0 km/h (0 Bft) W-SW 247 0 min 0,0 UV-I -0,8 C 1,1 C 0,0 km/h (0 Bft)
10.03.2013 06:30 0,3 C 9,6 C 1,1 C 1,3 C 1,3 C 1,0 C 92 % 93 % 0 % 998,6 hPa 0,0 l/m 0,0 km/h (0 Bft) O-NO 67 0 min 0,0 UV-I -0,8 C 1,3 C 0,0 km/h (0 Bft)
10.03.2013 06:35 0,4 C 9,6 C 1,2 C 1,5 C 1,5 C 1,1 C 92 % 94 % 0 % 998,4 hPa 0,0 l/m 0,0 km/h (0 Bft) O-NO 67 0 min 0,0 UV-I -0,7 C 1,5 C 0,0 km/h (0 Bft)
10.03.2013 06:46 0,7 C 9,6 C 1,3 C 2,2 C 2,2 C 1,5 C 92 % 94 % 39 % 998,4 hPa 0,0 l/m 0,0 km/h (0 Bft) N 0 11 min 0,0 UV-I -0,4 C 2,2 C 0,0 km/h (0 Bft)
10.03.2013 07:00 1,0 C 9,6 C 1,2 C 2,3 C 2,3 C 1,3 C 93 % 94 % 34 % 998,4 hPa 0,0 l/m 0,0 km/h (0 Bft) NO 45 14 min 0,0 UV-I -0,0 C 2,3 C 0,0 km/h (0 Bft)
10.03.2013 07:05 1,1 C 9,6 C 1,2 C 2,1 C 2,1 C 1,0 C 93 % 94 % 26 % 998,4 hPa 0,0 l/m 0,0 km/h (0 Bft) SO 135 5 min 0,0 UV-I 0,1 C 2,1 C 0,0 km/h (0 Bft)
10.03.2013 07:10 1,1 C 9,6 C 1,2 C 2,2 C 2,2 C 1,1 C 93 % 94 % 29 % 998,4 hPa 0,0 l/m 0,0 km/h (0 Bft) O-SO 112 5 min 0,0 UV-I 0,1 C 2,2 C 0,0 km/h (0 Bft)
10.03.2013 07:15 1,1 C 9,6 C 1,1 C 2,3 C 2,3 C 1,2 C 93 % 93 % 32 % 998,4 hPa 0,0 l/m 0,0 km/h (0 Bft) O-NO 67 5 min 0,0 UV-I 0,1 C 2,3 C 0,0 km/h (0 Bft)
10.03.2013 07:20 1,2 C 9,6 C 1,1 C 2,6 C 2,6 C 1,4 C 93 % 93 % 37 % 998,4 hPa 0,0 l/m 0,0 km/h (0 Bft) O-NO 67 5 min 0,0 UV-I 0,2 C 2,6 C 0,0 km/h (0 Bft)
10.03.2013 07:25 1,3 C 9,6 C 1,2 C 3,0 C 3,0 C 1,7 C 93 % 94 % 45 % 998,4 hPa 0,0 l/m 0,0 km/h (0 Bft) NO 45 5 min 0,0 UV-I 0,3 C 3,0 C 0,0 km/h (0 Bft)
10.03.2013 07:30 1,5 C 9,6 C 1,2 C 3,9 C 3,9 C 2,4 C 93 % 94 % 63 % 998,4 hPa 0,0 l/m 0,0 km/h (0 Bft) O-NO 67 5 min 0,0 UV-I 0,5 C 3,9 C 0,0 km/h (0 Bft)
10.03.2013 07:35 1,9 C 9,6 C 1,5 C 4,4 C 4,4 C 2,5 C 93 % 94 % 66 % 998,2 hPa 0,0 l/m 0,0 km/h (0 Bft) NO 45 5 min 0,0 UV-I 0,9 C 4,4 C 0,0 km/h (0 Bft)
10.03.2013 07:40 2,3 C 9,7 C 1,8 C 5,6 C 5,6 C 3,3 C 93 % 94 % 87 % 998,2 hPa 0,0 l/m 0,0 km/h (0 Bft) NO 45 5 min 0,0 UV-I 1,3 C 5,6 C 0,0 km/h (0 Bft)
10.03.2013 07:45 2,5 C 9,7 C 2,3 C 5,8 C 5,8 C 3,3 C 93 % 94 % 87 % 998,2 hPa 0,0 l/m 0,0 km/h (0 Bft) W-NW 292 5 min 0,0 UV-I 1,5 C 5,8 C 0,0 km/h (0 Bft)
10.03.2013 07:50 2,6 C 9,7 C 2,4 C 6,2 C 6,2 C 3,6 C 93 % 94 % 95 % 998,2 hPa 0,0 l/m 0,0 km/h (0 Bft) O-SO 112 5 min 0,0 UV-I 1,6 C 6,2 C 0,0 km/h (0 Bft)
10.03.2013 07:55 3,1 C 9,7 C 2,8 C 6,4 C 6,4 C 3,3 C 93 % 94 % 87 % 998,7 hPa 0,0 l/m 0,0 km/h (0 Bft) O 90 5 min 0,0 UV-I 2,1 C 6,4 C 0,0 km/h (0 Bft)
10.03.2013 08:00 3,2 C 9,7 C 3,1 C 6,7 C 6,7 C 3,5 C 93 % 94 % 92 % 998,7 hPa 0,0 l/m 0,0 km/h (0 Bft) N-NW 337 5 min 0,0 UV-I 2,2 C 6,7 C 0,0 km/h (0 Bft)
10.03.2013 08:05 3,5 C 9,7 C 3,5 C 6,8 C 6,8 C 3,3 C 93 % 94 % 87 % 998,7 hPa 0,0 l/m 0,2 km/h (0 Bft) O-NO 67 5 min 0,0 UV-I 2,5 C 6,8 C 3,7 km/h (1 Bft)
10.03.2013 08:10 3,7 C 9,7 C 3,6 C 6,8 C 6,8 C 3,1 C 93 % 94 % 82 % 998,7 hPa 0,0 l/m 1,1 km/h (1 Bft) S 180 5 min 0,0 UV-I 2,7 C 6,8 C 3,1 km/h (1 Bft)
10.03.2013 08:15 3,9 C 9,6 C 4,1 C 6,8 C 6,8 C 2,9 C 93 % 94 % 76 % 998,1 hPa 0,0 l/m 3,4 km/h (1 Bft) S-SW 202 5 min 0,0 UV-I 2,9 C 6,8 C 7,6 km/h (2 Bft)
10.03.2013 08:20 4,0 C 9,6 C 4,3 C 6,6 C 6,6 C 2,6 C 93 % 94 % 68 % 998,1 hPa 0,0 l/m 3,7 km/h (1 Bft) S 180 5 min 0,0 UV-I 3,0 C 6,6 C 4,5 km/h (1 Bft)
10.03.2013 08:25 4,3 C 9,6 C 4,7 C 6,9 C 6,9 C 2,6 C 93 % 94 % 68 % 998,1 hPa 0,0 l/m 4,2 km/h (1 Bft) SW 225 0 min 0,0 UV-I 3,3 C 6,9 C 5,6 km/h (1 Bft)
10.03.2013 08:30 4,5 C 9,6 C 4,8 C 7,3 C 7,3 C 2,8 C 93 % 94 % 74 % 998,1 hPa 0,0 l/m 3,9 km/h (1 Bft) O-SO 112 0 min 0,0 UV-I 3,5 C 7,3 C 3,2 km/h (1 Bft)
10.03.2013 08:35 4,6 C 9,6 C 5,1 C 7,8 C 7,8 C 3,2 C 93 % 94 % 84 % 997,9 hPa 0,0 l/m 3,2 km/h (1 Bft) SW 225 5 min 0,0 UV-I 3,6 C 7,8 C 7,9 km/h (2 Bft)
10.03.2013 08:40 4,8 C 9,6 C 5,4 C 7,9 C 7,9 C 3,1 C 93 % 94 % 82 % 997,9 hPa 0,0 l/m 2,7 km/h (1 Bft) O-SO 112 5 min 0,0 UV-I 3,8 C 7,9 C 0,0 km/h (0 Bft)
10.03.2013 08:45 5,0 C 9,6 C 5,9 C 8,1 C 8,1 C 3,1 C 93 % 94 % 82 % 997,9 hPa 0,0 l/m 2,7 km/h (1 Bft) W 270 0 min 0,0 UV-I 4,0 C 8,1 C 8,7 km/h (2 Bft)
10.03.2013 08:50 5,3 C 9,6 C 6,1 C 8,2 C 8,2 C 2,9 C 93 % 94 % 76 % 997,9 hPa 0,0 l/m 3,5 km/h (1 Bft) S 180 0 min 0,0 UV-I 4,3 C 8,2 C 12,2 km/h (2 Bft)
10.03.2013 08:55 5,5 C 9,6 C 6,3 C 8,5 C 8,5 C 3,0 C 93 % 94 % 79 % 998,5 hPa 0,0 l/m 4,0 km/h (1 Bft) SW 225 0 min 0,0 UV-I 4,5 C 8,5 C 4,5 km/h (1 Bft)
10.03.2013 09:00 5,8 C 9,6 C 6,4 C 8,2 C 8,2 C 2,4 C 93 % 94 % 63 % 998,5 hPa 0,0 l/m 4,3 km/h (1 Bft) SO 135 0 min 0,0 UV-I 4,8 C 8,2 C 4,0 km/h (1 Bft)
10.03.2013 09:05 6,1 C 9,6 C 6,7 C 8,4 C 8,4 C 2,3 C 93 % 94 % 61 % 998,5 hPa 0,0 l/m 4,7 km/h (1 Bft) SO 135 0 min 0,1 UV-I 5,1 C 8,0 C 12,7 km/h (3 Bft)
10.03.2013 09:10 6,3 C 9,6 C 7,1 C 8,6 C 8,6 C 2,3 C 93 % 94 % 61 % 998,5 hPa 0,0 l/m 4,3 km/h (1 Bft) NW 315 0 min 0,1 UV-I 5,3 C 8,6 C 9,2 km/h (2 Bft)
10.03.2013 09:15 6,3 C 9,5 C 7,3 C 8,4 C 8,4 C 2,1 C 93 % 94 % 55 % 997,9 hPa 0,0 l/m 5,3 km/h (1 Bft) S 180 0 min 0,1 UV-I 5,3 C 7,8 C 8,5 km/h (2 Bft)
10.03.2013 09:20 6,4 C 9,6 C 7,5 C 8,4 C 8,4 C 2,0 C 92 % 94 % 53 % 997,9 hPa 0,0 l/m 5,5 km/h (1 Bft) SO 135 0 min 0,1 UV-I 5,2 C 7,8 C 9,8 km/h (2 Bft)
10.03.2013 09:25 6,5 C 9,6 C 8,1 C 9,6 C 9,6 C 3,1 C 92 % 93 % 82 % 997,9 hPa 0,0 l/m 4,8 km/h (1 Bft) W-SW 247 0 min 0,2 UV-I 5,3 C 9,4 C 13,0 km/h (3 Bft)
10.03.2013 09:30 6,7 C 9,5 C 8,2 C 9,4 C 9,4 C 2,7 C 90 % 93 % 71 % 997,9 hPa 0,0 l/m 6,4 km/h (2 Bft) SW 225 0 min 0,2 UV-I 5,2 C 8,7 C 18,5 km/h (3 Bft)
10.03.2013 09:35 6,8 C 9,5 C 8,9 C 9,9 C 9,9 C 3,1 C 89 % 93 % 82 % 998,0 hPa 0,0 l/m 7,6 km/h (2 Bft) SW 225 0 min 0,2 UV-I 5,1 C 9,0 C 19,8 km/h (3 Bft)
10.03.2013 09:40 7,0 C 9,5 C 8,8 C 9,9 C 9,9 C 2,9 C 88 % 93 % 76 % 998,0 hPa 0,0 l/m 7,7 km/h (2 Bft) S-SO 157 0 min 0,3 UV-I 5,2 C 9,0 C 7,7 km/h (2 Bft)
10.03.2013 09:45 7,5 C 9,5 C 8,7 C 10,1 C 9,7 C 2,6 C 86 % 92 % 68 % 998,0 hPa 0,0 l/m 8,4 km/h (2 Bft) S-SW 202 0 min 0,3 UV-I 5,3 C 8,6 C 11,9 km/h (2 Bft)
10.03.2013 09:50 7,6 C 9,4 C 8,4 C 10,1 C 9,9 C 2,5 C 85 % 92 % 66 % 998,0 hPa 0,0 l/m 8,2 km/h (2 Bft) SW 225 0 min 0,3 UV-I 5,2 C 8,8 C 7,4 km/h (2 Bft)
10.03.2013 09:55 7,8 C 9,4 C 8,3 C 9,8 C 9,2 C 2,0 C 84 % 91 % 53 % 997,9 hPa 0,0 l/m 8,5 km/h (2 Bft) W-SW 247 0 min 0,3 UV-I 5,3 C 8,0 C 22,0 km/h (4 Bft)
10.03.2013 10:00 8,0 C 9,5 C 8,1 C 9,4 C 8,9 C 1,4 C 83 % 91 % 37 % 997,9 hPa 0,0 l/m 9,8 km/h (2 Bft) SW 225 0 min 0,4 UV-I 5,3 C 7,4 C 21,6 km/h (4 Bft)
10.03.2013 10:05 8,3 C 9,5 C 8,1 C 9,7 C 9,4 C 1,4 C 82 % 91 % 37 % 997,9 hPa 0,0 l/m 10,6 km/h (2 Bft) W-SW 247 0 min 0,4 UV-I 5,4 C 7,8 C 16,3 km/h (3 Bft)
10.03.2013 10:10 8,5 C 9,5 C 8,3 C 9,7 C 9,2 C 1,2 C 81 % 91 % 32 % 997,9 hPa 0,0 l/m 10,6 km/h (2 Bft) W 270 0 min 0,5 UV-I 5,4 C 7,6 C 17,5 km/h (3 Bft)
10.03.2013 10:15 8,4 C 9,5 C 8,1 C 9,3 C 8,7 C 0,9 C 81 % 91 % 24 % 998,0 hPa 0,0 l/m 10,1 km/h (2 Bft) W 270 0 min 0,4 UV-I 5,3 C 7,1 C 7,6 km/h (2 Bft)
10.03.2013 10:20 8,4 C 9,5 C 8,3 C 9,4 C 9,2 C 1,0 C 81 % 90 % 26 % 998,0 hPa 0,0 l/m 8,5 km/h (2 Bft) W-SW 247 0 min 0,4 UV-I 5,3 C 8,0 C 10,8 km/h (2 Bft)
10.03.2013 10:25 8,6 C 9,5 C 8,8 C 10,9 C 10,9 C 2,3 C 82 % 90 % 61 % 998,0 hPa 0,0 l/m 5,5 km/h (1 Bft) NW 315 0 min 0,5 UV-I 5,7 C 10,9 C 6,8 km/h (2 Bft)
10.03.2013 10:30 8,7 C 9,5 C 8,8 C 10,4 C 10,4 C 1,7 C 81 % 90 % 45 % 998,0 hPa 0,0 l/m 7,2 km/h (2 Bft) W-SW 247 0 min 0,4 UV-I 5,6 C 10,4 C 10,9 km/h (2 Bft)
10.03.2013 10:35 8,8 C 9,5 C 8,8 C 10,2 C 9,4 C 1,4 C 79 % 90 % 37 % 998,0 hPa 0,0 l/m 11,7 km/h (2 Bft) S 180 0 min 0,5 UV-I 5,4 C 7,6 C 9,5 km/h (2 Bft)
10.03.2013 10:40 8,9 C 9,5 C 8,8 C 9,4 C 9,4 C 0,5 C 79 % 90 % 13 % 998,0 hPa 0,0 l/m 11,1 km/h (2 Bft) SO 135 0 min 0,5 UV-I 5,5 C 7,7 C 9,0 km/h (2 Bft)
10.03.2013 10:45 9,1 C 9,5 C 9,1 C 10,2 C 10,1 C 1,1 C 79 % 89 % 29 % 998,0 hPa 0,0 l/m 9,0 km/h (2 Bft) SW 225 0 min 0,5 UV-I 5,7 C 10,1 C 10,9 km/h (2 Bft)
10.03.2013 10:50 9,1 C 9,5 C 9,1 C 10,1 C 10,1 C 1,0 C 78 % 89 % 26 % 998,0 hPa 0,0 l/m 9,3 km/h (2 Bft) S 180 0 min 0,4 UV-I 5,5 C 10,1 C 10,0 km/h (2 Bft)
10.03.2013 10:55 9,1 C 9,5 C 9,2 C 10,4 C 9,9 C 1,3 C 79 % 89 % 34 % 998,2 hPa 0,0 l/m 10,0 km/h (2 Bft) W-SW 247 0 min 0,4 UV-I 5,7 C 8,5 C 15,4 km/h (3 Bft)
10.03.2013 11:00 9,2 C 9,6 C 9,2 C 10,3 C 10,0 C 1,1 C 78 % 89 % 29 % 998,2 hPa 0,0 l/m 9,7 km/h (2 Bft) W-SW 247 0 min 0,4 UV-I 5,6 C 8,7 C 7,9 km/h (2 Bft)
10.03.2013 11:05 9,2 C 9,6 C 9,1 C 10,4 C 10,2 C 1,2 C 78 % 89 % 32 % 998,2 hPa 0,0 l/m 8,5 km/h (2 Bft) W-SW 247 0 min 0,4 UV-I 5,6 C 10,2 C 7,9 km/h (2 Bft)
10.03.2013 11:10 9,1 C 9,6 C 8,9 C 10,5 C 10,5 C 1,4 C 78 % 89 % 37 % 998,2 hPa 0,0 l/m 6,0 km/h (2 Bft) SW 225 0 min 0,2 UV-I 5,5 C 10,5 C 7,6 km/h (2 Bft)
10.03.2013 11:15 8,9 C 9,6 C 8,9 C 11,0 C 11,0 C 2,1 C 79 % 89 % 55 % 998,4 hPa 0,0 l/m 4,5 km/h (1 Bft) W-NW 292 0 min 0,3 UV-I 5,5 C 11,0 C 4,2 km/h (1 Bft)
10.03.2013 11:20 8,6 C 9,7 C 8,9 C 11,0 C 11,0 C 2,4 C 80 % 89 % 63 % 998,4 hPa 0,0 l/m 4,2 km/h (1 Bft) W-SW 247 0 min 0,3 UV-I 5,3 C 11,0 C 7,1 km/h (2 Bft)
10.03.2013 11:25 8,4 C 9,7 C 8,8 C 10,9 C 10,9 C 2,5 C 81 % 89 % 66 % 998,4 hPa 0,0 l/m 3,9 km/h (1 Bft) SW 225 0 min 0,6 UV-I 5,3 C 10,9 C 9,5 km/h (2 Bft)
10.03.2013 11:30 8,1 C 9,7 C 8,9 C 10,6 C 10,6 C 2,5 C 80 % 89 % 66 % 998,4 hPa 0,0 l/m 5,0 km/h (1 Bft) SW 225 0 min 0,8 UV-I 4,9 C 10,6 C 4,3 km/h (1 Bft)
10.03.2013 11:35 8,0 C 9,7 C 8,9 C 10,7 C 10,7 C 2,7 C 82 % 89 % 71 % 998,3 hPa 0,0 l/m 6,0 km/h (2 Bft) S 180 0 min 0,7 UV-I 5,1 C 10,7 C 4,3 km/h (1 Bft)
10.03.2013 11:40 8,0 C 9,7 C 9,0 C 11,7 C 11,7 C 3,7 C 82 % 89 % 97 % 998,3 hPa 0,0 l/m 5,1 km/h (1 Bft) SW 225 5 min 0,9 UV-I 5,1 C 11,7 C 9,7 km/h (2 Bft)
10.03.2013 11:45 8,1 C 9,8 C 9,1 C 12,2 C 12,2 C 4,1 C 82 % 89 % 100 % 998,3 hPa 0,0 l/m 3,9 km/h (1 Bft) S-SW 202 5 min 0,8 UV-I 5,2 C 12,2 C 6,8 km/h (2 Bft)
10.03.2013 11:50 7,9 C 9,8 C 9,1 C 11,9 C 11,9 C 4,0 C 82 % 89 % 100 % 998,3 hPa 0,0 l/m 3,7 km/h (1 Bft) SW 225 5 min 0,7 UV-I 5,0 C 11,9 C 4,3 km/h (1 Bft)
10.03.2013 11:55 7,7 C 9,8 C 8,9 C 11,2 C 11,2 C 3,5 C 82 % 89 % 92 % 998,6 hPa 0,0 l/m 4,3 km/h (1 Bft) W 270 5 min 0,8 UV-I 4,8 C 11,2 C 2,9 km/h (1 Bft)
10.03.2013 12:00 7,6 C 9,9 C 8,9 C 11,1 C 11,1 C 3,5 C 83 % 89 % 92 % 998,6 hPa 0,0 l/m 3,4 km/h (1 Bft) SW 225 5 min 0,6 UV-I 4,9 C 11,1 C 4,2 km/h (1 Bft)
10.03.2013 12:05 7,6 C 9,9 C 8,9 C 11,1 C 11,1 C 3,5 C 83 % 89 % 92 % 998,6 hPa 0,0 l/m 2,6 km/h (1 Bft) S 180 5 min 0,7 UV-I 4,9 C 11,1 C 2,4 km/h (1 Bft)
10.03.2013 12:10 7,5 C 9,9 C 8,7 C 10,8 C 10,8 C 3,3 C 83 % 89 % 87 % 998,6 hPa 0,0 l/m 2,1 km/h (1 Bft) SW 225 5 min 0,7 UV-I 4,8 C 10,8 C 3,2 km/h (1 Bft)
10.03.2013 12:15 7,3 C 9,9 C 8,8 C 10,8 C 10,8 C 3,5 C 83 % 89 % 92 % 998,3 hPa 0,0 l/m 2,7 km/h (1 Bft) SW 225 5 min 0,7 UV-I 4,6 C 10,8 C 4,0 km/h (1 Bft)
10.03.2013 12:20 7,2 C 9,9 C 8,9 C 11,6 C 11,6 C 4,4 C 83 % 89 % 100 % 998,3 hPa 0,0 l/m 3,2 km/h (1 Bft) S 180 5 min 1,0 UV-I 4,5 C 11,6 C 3,4 km/h (1 Bft)
10.03.2013 12:25 7,2 C 10,0 C 8,8 C 11,3 C 11,3 C 4,1 C 83 % 89 % 100 % 998,3 hPa 0,0 l/m 3,2 km/h (1 Bft) SW 225 5 min 0,8 UV-I 4,5 C 11,3 C 5,1 km/h (1 Bft)
10.03.2013 12:30 7,2 C 10,0 C 8,8 C 11,2 C 11,2 C 4,0 C 83 % 89 % 100 % 998,3 hPa 0,0 l/m 3,5 km/h (1 Bft) S 180 5 min 0,8 UV-I 4,5 C 11,2 C 5,1 km/h (1 Bft)
10.03.2013 12:35 7,0 C 10,0 C 8,7 C 10,5 C 10,5 C 3,5 C 82 % 89 % 92 % 999,0 hPa 0,0 l/m 3,5 km/h (1 Bft) W-SW 247 5 min 0,7 UV-I 4,1 C 10,5 C 0,0 km/h (0 Bft)
10.03.2013 12:46 6,8 C 10,0 C 8,5 C 10,3 C 10,3 C 3,5 C 83 % 89 % 92 % 999,0 hPa 0,0 l/m 1,9 km/h (1 Bft) N 0 11 min 0,6 UV-I 4,1 C 10,3 C 2,4 km/h (1 Bft)
10.03.2013 13:00 6,8 C 10,2 C 8,4 C 10,1 C 10,1 C 3,3 C 84 % 89 % 87 % 998,7 hPa 0,0 l/m 1,1 km/h (1 Bft) W 270 14 min 0,5 UV-I 4,3 C 10,1 C 1,9 km/h (1 Bft)
10.03.2013 13:05 6,8 C 10,2 C 8,4 C 10,5 C 10,5 C 3,7 C 83 % 89 % 97 % 998,7 hPa 0,0 l/m 2,3 km/h (1 Bft) N-NO 22 5 min 0,6 UV-I 4,1 C 10,5 C 4,5 km/h (1 Bft)
10.03.2013 13:10 6,7 C 10,2 C 8,4 C 10,4 C 10,4 C 3,7 C 83 % 89 % 97 % 998,7 hPa 0,0 l/m 2,7 km/h (1 Bft) SW 225 5 min 0,6 UV-I 4,0 C 10,4 C 6,1 km/h (2 Bft)
10.03.2013 13:15 6,8 C 10,2 C 8,5 C 10,2 C 10,2 C 3,4 C 83 % 89 % 89 % 998,4 hPa 0,0 l/m 2,4 km/h (1 Bft) W-SW 247 5 min 0,5 UV-I 4,1 C 10,2 C 0,0 km/h (0 Bft)
10.03.2013 13:20 6,7 C 10,2 C 8,3 C 10,0 C 10,0 C 3,3 C 83 % 89 % 87 % 998,4 hPa 0,0 l/m 2,1 km/h (1 Bft) N 360 5 min 0,4 UV-I 4,0 C 10,0 C 0,0 km/h (0 Bft)
10.03.2013 13:25 6,6 C 10,3 C 8,4 C 10,0 C 10,0 C 3,4 C 84 % 89 % 89 % 998,4 hPa 0,0 l/m 1,3 km/h (1 Bft) NO 45 5 min 0,4 UV-I 4,1 C 10,0 C 0,0 km/h (0 Bft)
10.03.2013 13:30 6,7 C 10,3 C 8,4 C 10,1 C 10,1 C 3,4 C 84 % 89 % 89 % 998,4 hPa 0,0 l/m 1,4 km/h (1 Bft) O-NO 67 5 min 0,4 UV-I 4,2 C 10,1 C 2,1 km/h (1 Bft)
10.03.2013 13:35 6,7 C 10,3 C 8,5 C 10,4 C 10,4 C 3,7 C 84 % 88 % 97 % 998,7 hPa 0,0 l/m 2,1 km/h (1 Bft) N-NW 337 5 min 0,6 UV-I 4,2 C 10,4 C 5,0 km/h (1 Bft)
10.03.2013 13:40 6,6 C 10,3 C 8,3 C 10,1 C 10,1 C 3,5 C 83 % 88 % 92 % 998,7 hPa 0,0 l/m 2,9 km/h (1 Bft) NW 315 5 min 0,6 UV-I 3,9 C 10,1 C 7,6 km/h (2 Bft)
10.03.2013 13:45 6,5 C 10,3 C 8,5 C 10,2 C 10,2 C 3,7 C 83 % 88 % 97 % 998,7 hPa 0,0 l/m 3,4 km/h (1 Bft) N-NO 22 5 min 0,6 UV-I 3,8 C 10,2 C 2,3 km/h (1 Bft)
10.03.2013 13:50 6,6 C 10,3 C 8,7 C 10,5 C 10,5 C 3,9 C 84 % 88 % 100 % 998,7 hPa 0,0 l/m 3,4 km/h (1 Bft) N-NW 337 5 min 0,6 UV-I 4,1 C 10,5 C 4,3 km/h (1 Bft)
10.03.2013 13:55 6,7 C 10,3 C 8,4 C 10,5 C 10,5 C 3,8 C 84 % 87 % 100 % 998,4 hPa 0,0 l/m 3,2 km/h (1 Bft) N-NO 22 5 min 0,7 UV-I 4,2 C 10,5 C 5,5 km/h (1 Bft)
10.03.2013 14:00 6,5 C 10,4 C 8,3 C 10,1 C 10,1 C 3,6 C 83 % 88 % 95 % 998,4 hPa 0,0 l/m 2,7 km/h (1 Bft) NW 315 5 min 0,4 UV-I 3,8 C 10,1 C 4,2 km/h (1 Bft)
10.03.2013 14:05 6,4 C 10,4 C 8,0 C 9,4 C 9,4 C 3,0 C 83 % 88 % 79 % 998,4 hPa 0,0 l/m 2,6 km/h (1 Bft) W 270 0 min 0,2 UV-I 3,7 C 9,4 C 7,6 km/h (2 Bft)
10.03.2013 14:10 6,3 C 10,4 C 7,7 C 9,0 C 9,0 C 2,7 C 83 % 87 % 71 % 998,4 hPa 0,0 l/m 3,1 km/h (1 Bft) SW 225 0 min 0,2 UV-I 3,6 C 9,0 C 1,9 km/h (1 Bft)
10.03.2013 14:15 6,3 C 10,4 C 7,4 C 8,4 C 8,4 C 2,1 C 83 % 87 % 55 % 998,6 hPa 0,0 l/m 3,1 km/h (1 Bft) N-NW 337 0 min 0,1 UV-I 3,6 C 8,4 C 2,7 km/h (1 Bft)
10.03.2013 14:20 6,1 C 10,4 C 7,3 C 8,1 C 8,1 C 2,0 C 83 % 87 % 53 % 998,6 hPa 0,0 l/m 2,9 km/h (1 Bft) O-NO 67 0 min 0,0 UV-I 3,4 C 8,1 C 4,0 km/h (1 Bft)
10.03.2013 14:25 5,9 C 10,4 C 7,2 C 8,2 C 8,2 C 2,3 C 84 % 88 % 61 % 998,6 hPa 0,0 l/m 2,3 km/h (1 Bft) N 360 0 min 0,2 UV-I 3,4 C 8,2 C 1,9 km/h (1 Bft)
10.03.2013 14:30 5,8 C 10,5 C 7,2 C 8,1 C 8,1 C 2,3 C 84 % 88 % 61 % 998,6 hPa 0,0 l/m 1,9 km/h (1 Bft) N 360 0 min 0,1 UV-I 3,3 C 8,1 C 5,8 km/h (2 Bft)
10.03.2013 14:35 5,7 C 10,5 C 6,9 C 7,7 C 7,7 C 2,0 C 84 % 87 % 53 % 998,9 hPa 0,0 l/m 3,4 km/h (1 Bft) NW 315 0 min 0,0 UV-I 3,2 C 7,7 C 5,0 km/h (1 Bft)
10.03.2013 14:40 5,5 C 10,5 C 6,8 C 7,0 C 7,0 C 1,5 C 84 % 88 % 39 % 998,9 hPa 0,0 l/m 4,3 km/h (1 Bft) NO 45 0 min 0,0 UV-I 3,0 C 7,0 C 3,1 km/h (1 Bft)
10.03.2013 14:45 5,3 C 10,5 C 6,8 C 6,9 C 6,9 C 1,6 C 84 % 87 % 42 % 998,9 hPa 0,0 l/m 4,2 km/h (1 Bft) NW 315 0 min 0,0 UV-I 2,8 C 6,9 C 6,1 km/h (2 Bft)
10.03.2013 14:50 5,2 C 10,5 C 6,7 C 7,0 C 7,0 C 1,8 C 84 % 88 % 47 % 998,9 hPa 0,0 l/m 4,0 km/h (1 Bft) N-NO 22 0 min 0,1 UV-I 2,7 C 7,0 C 1,6 km/h (1 Bft)
10.03.2013 14:55 5,2 C 10,5 C 6,4 C 6,7 C 6,7 C 1,5 C 84 % 87 % 39 % 999,7 hPa 0,0 l/m 4,5 km/h (1 Bft) N-NO 22 0 min 0,1 UV-I 2,7 C 6,7 C 7,2 km/h (2 Bft)
10.03.2013 15:00 4,9 C 10,6 C 6,0 C 6,0 C 6,0 C 1,1 C 84 % 87 % 29 % 999,7 hPa 0,0 l/m 5,1 km/h (1 Bft) NO 45 0 min 0,1 UV-I 2,4 C 5,2 C 11,7 km/h (2 Bft)
10.03.2013 15:05 4,7 C 10,6 C 5,9 C 5,4 C 5,4 C 0,7 C 84 % 87 % 18 % 999,7 hPa 0,0 l/m 5,3 km/h (1 Bft) NO 45 0 min 0,0 UV-I 2,2 C 4,4 C 10,3 km/h (2 Bft)
10.03.2013 15:10 4,4 C 10,6 C 5,6 C 5,1 C 5,1 C 0,7 C 84 % 87 % 18 % 999,7 hPa 0,0 l/m 5,3 km/h (1 Bft) NW 315 0 min 0,0 UV-I 1,9 C 4,1 C 5,8 km/h (2 Bft)
10.03.2013 15:15 4,3 C 10,6 C 5,3 C 4,6 C 4,6 C 0,3 C 85 % 87 % 8 % 999,4 hPa 0,0 l/m 5,5 km/h (1 Bft) N-NW 337 0 min 0,0 UV-I 2,0 C 3,4 C 6,4 km/h (2 Bft)
10.03.2013 15:20 4,1 C 10,6 C 5,3 C 4,6 C 4,6 C 0,5 C 85 % 87 % 13 % 999,4 hPa 0,0 l/m 5,1 km/h (1 Bft) N-NW 337 0 min 0,0 UV-I 1,8 C 3,6 C 6,1 km/h (2 Bft)
10.03.2013 15:25 3,8 C 10,6 C 5,0 C 4,7 C 4,7 C 0,9 C 85 % 87 % 24 % 999,4 hPa 0,0 l/m 4,0 km/h (1 Bft) O-SO 112 0 min 0,0 UV-I 1,5 C 4,7 C 0,0 km/h (0 Bft)
10.03.2013 15:30 3,8 C 10,7 C 5,0 C 5,2 C 5,2 C 1,4 C 85 % 88 % 37 % 999,4 hPa 0,0 l/m 2,9 km/h (1 Bft) N 360 0 min 0,0 UV-I 1,5 C 5,2 C 2,4 km/h (1 Bft)
10.03.2013 15:35 3,7 C 10,7 C 4,9 C 5,2 C 5,2 C 1,5 C 85 % 88 % 39 % 999,6 hPa 0,0 l/m 2,4 km/h (1 Bft) N-NW 337 0 min 0,0 UV-I 1,4 C 5,2 C 4,7 km/h (1 Bft)
10.03.2013 15:40 3,6 C 10,7 C 4,8 C 4,6 C 4,6 C 1,0 C 85 % 88 % 26 % 999,6 hPa 0,0 l/m 4,0 km/h (1 Bft) N-NO 22 0 min 0,0 UV-I 1,3 C 4,6 C 3,4 km/h (1 Bft)
10.03.2013 15:45 3,3 C 10,8 C 4,6 C 4,1 C 4,1 C 0,8 C 85 % 88 % 21 % 999,6 hPa 0,0 l/m 4,7 km/h (1 Bft) NW 315 0 min 0,0 UV-I 1,0 C 3,2 C 4,0 km/h (1 Bft)
10.03.2013 15:50 3,3 C 10,8 C 4,7 C 4,0 C 4,0 C 0,7 C 86 % 88 % 18 % 999,6 hPa 0,0 l/m 4,5 km/h (1 Bft) NW 315 0 min 0,0 UV-I 1,2 C 4,0 C 7,9 km/h (2 Bft)
10.03.2013 15:55 3,1 C 10,8 C 4,4 C 4,0 C 4,0 C 0,9 C 86 % 88 % 24 % 999,4 hPa 0,0 l/m 4,2 km/h (1 Bft) NO 45 0 min 0,0 UV-I 1,0 C 4,0 C 6,3 km/h (2 Bft)
10.03.2013 16:00 2,9 C 10,8 C 4,3 C 3,7 C 3,7 C 0,8 C 86 % 88 % 21 % 999,4 hPa 0,0 l/m 4,2 km/h (1 Bft) N-NW 337 0 min 0,0 UV-I 0,8 C 3,7 C 8,0 km/h (2 Bft)
10.03.2013 16:05 2,7 C 10,8 C 4,1 C 3,3 C 3,3 C 0,6 C 86 % 88 % 16 % 999,4 hPa 0,0 l/m 4,3 km/h (1 Bft) N-NW 337 0 min 0,0 UV-I 0,6 C 3,3 C 8,7 km/h (2 Bft)
10.03.2013 16:10 2,5 C 10,9 C 3,8 C 2,7 C 2,7 C 0,2 C 86 % 88 % 5 % 999,4 hPa 0,0 l/m 5,3 km/h (1 Bft) N-NW 337 0 min 0,0 UV-I 0,4 C 1,3 C 5,6 km/h (1 Bft)
10.03.2013 16:15 2,4 C 10,9 C 3,7 C 2,6 C 2,6 C 0,2 C 86 % 88 % 5 % 999,9 hPa 0,0 l/m 4,7 km/h (1 Bft) N-NO 22 0 min 0,0 UV-I 0,3 C 1,5 C 1,9 km/h (1 Bft)
10.03.2013 16:20 2,3 C 10,9 C 3,6 C 3,0 C 3,0 C 0,7 C 86 % 89 % 18 % 999,9 hPa 0,0 l/m 3,7 km/h (1 Bft) N-NW 337 0 min 0,0 UV-I 0,2 C 3,0 C 4,3 km/h (1 Bft)
10.03.2013 16:25 2,2 C 10,9 C 3,5 C 3,1 C 3,1 C 0,9 C 87 % 89 % 24 % 999,9 hPa 0,0 l/m 3,4 km/h (1 Bft) N-NO 22 0 min 0,0 UV-I 0,3 C 3,1 C 4,2 km/h (1 Bft)
10.03.2013 16:30 2,0 C 10,9 C 3,5 C 2,5 C 2,5 C 0,5 C 87 % 89 % 13 % 999,9 hPa 0,0 l/m 4,2 km/h (1 Bft) N-NW 337 0 min 0,0 UV-I 0,1 C 2,5 C 5,8 km/h (2 Bft)
10.03.2013 16:35 2,0 C 10,9 C 3,2 C 2,4 C 2,4 C 0,4 C 87 % 89 % 11 % 999,8 hPa 0,0 l/m 4,0 km/h (1 Bft) N-NW 337 0 min 0,0 UV-I 0,1 C 2,4 C 5,5 km/h (1 Bft)
10.03.2013 16:40 1,8 C 10,9 C 3,3 C 2,6 C 2,6 C 0,8 C 87 % 89 % 21 % 999,8 hPa 0,0 l/m 3,7 km/h (1 Bft) NW 315 0 min 0,0 UV-I -0,1 C 2,6 C 0,0 km/h (0 Bft)
10.03.2013 16:45 1,7 C 10,9 C 3,1 C 2,9 C 2,9 C 1,2 C 87 % 89 % 32 % 999,8 hPa 0,0 l/m 2,9 km/h (1 Bft) N-NW 337 0 min 0,0 UV-I -0,2 C 2,9 C 4,8 km/h (1 Bft)
10.03.2013 16:50 1,6 C 10,9 C 3,1 C 2,7 C 2,7 C 1,1 C 87 % 89 % 29 % 999,8 hPa 0,0 l/m 2,9 km/h (1 Bft) N-NW 337 0 min 0,0 UV-I -0,3 C 2,7 C 3,1 km/h (1 Bft)
10.03.2013 16:55 1,6 C 10,9 C 2,9 C 2,2 C 2,2 C 0,6 C 87 % 89 % 16 % 999,6 hPa 0,0 l/m 3,5 km/h (1 Bft) NW 315 0 min 0,0 UV-I -0,3 C 2,2 C 7,1 km/h (2 Bft)
10.03.2013 17:00 1,5 C 10,9 C 2,8 C 1,8 C 1,8 C 0,3 C 87 % 89 % 8 % 999,6 hPa 0,0 l/m 3,9 km/h (1 Bft) NW 315 0 min 0,0 UV-I -0,4 C 1,8 C 3,7 km/h (1 Bft)
10.03.2013 17:05 1,2 C 10,9 C 2,6 C 1,3 C 1,3 C 0,1 C 88 % 89 % 3 % 999,6 hPa 0,0 l/m 4,3 km/h (1 Bft) NO 45 0 min 0,0 UV-I -0,6 C 1,3 C 5,5 km/h (1 Bft)
10.03.2013 17:10 1,2 C 10,9 C 2,5 C 1,4 C 1,4 C 0,2 C 88 % 89 % 5 % 999,6 hPa 0,0 l/m 4,0 km/h (1 Bft) N-NW 337 0 min 0,0 UV-I -0,6 C 1,4 C 3,2 km/h (1 Bft)
10.03.2013 17:15 1,1 C 10,9 C 2,5 C 1,3 C 1,3 C 0,2 C 88 % 89 % 5 % 999,7 hPa 0,0 l/m 4,0 km/h (1 Bft) N-NW 337 0 min 0,0 UV-I -0,7 C 1,3 C 3,7 km/h (1 Bft)
10.03.2013 17:20 1,1 C 10,9 C 2,3 C 1,3 C 1,3 C 0,2 C 88 % 89 % 5 % 999,7 hPa 0,0 l/m 3,7 km/h (1 Bft) NW 315 0 min 0,0 UV-I -0,7 C 1,3 C 7,9 km/h (2 Bft)
10.03.2013 17:25 0,9 C 10,9 C 2,2 C 1,2 C 1,2 C 0,3 C 88 % 89 % 8 % 999,7 hPa 0,0 l/m 3,7 km/h (1 Bft) N 360 0 min 0,0 UV-I -0,9 C 1,2 C 5,5 km/h (1 Bft)
10.03.2013 17:30 0,8 C 10,9 C 2,2 C 1,2 C 1,2 C 0,4 C 88 % 90 % 11 % 999,7 hPa 0,0 l/m 3,7 km/h (1 Bft) N 360 0 min 0,0 UV-I -1,0 C 1,2 C 8,4 km/h (2 Bft)
10.03.2013 17:35 0,8 C 11,0 C 2,3 C 1,2 C 1,2 C 0,4 C 88 % 90 % 11 % 1000,4 hPa 0,0 l/m 3,5 km/h (1 Bft) N-NO 22 0 min 0,0 UV-I -1,0 C 1,2 C 2,3 km/h (1 Bft)
10.03.2013 17:40 0,8 C 11,0 C 2,3 C 1,7 C 1,7 C 0,9 C 88 % 90 % 24 % 1000,4 hPa 0,0 l/m 2,4 km/h (1 Bft) O-NO 67 5 min 0,0 UV-I -1,0 C 1,7 C 2,3 km/h (1 Bft)
10.03.2013 17:45 0,7 C 11,0 C 2,0 C 1,6 C 1,6 C 0,9 C 88 % 90 % 24 % 1000,4 hPa 0,0 l/m 1,9 km/h (1 Bft) NW 315 5 min 0,0 UV-I -1,1 C 1,6 C 5,0 km/h (1 Bft)
10.03.2013 17:50 0,6 C 11,0 C 2,1 C 1,6 C 1,6 C 1,0 C 88 % 90 % 26 % 1000,4 hPa 0,0 l/m 1,9 km/h (1 Bft) NW 315 5 min 0,0 UV-I -1,2 C 1,6 C 0,0 km/h (0 Bft)
10.03.2013 17:55 0,7 C 11,0 C 1,9 C 1,5 C 1,5 C 0,8 C 89 % 90 % 0 % 1000,1 hPa 0,0 l/m 2,4 km/h (1 Bft) N-NW 337 0 min 0,0 UV-I -0,9 C 1,5 C 4,8 km/h (1 Bft)
10.03.2013 18:00 0,5 C 10,9 C 1,9 C 1,2 C 1,2 C 0,7 C 89 % 90 % 0 % 1000,1 hPa 0,0 l/m 2,9 km/h (1 Bft) NO 45 0 min 0,0 UV-I -1,1 C 1,2 C 5,3 km/h (1 Bft)
10.03.2013 18:05 0,4 C 10,9 C 1,9 C 1,1 C 1,1 C 0,7 C 89 % 90 % 0 % 1000,1 hPa 0,0 l/m 2,9 km/h (1 Bft) O-NO 67 0 min 0,0 UV-I -1,2 C 1,1 C 2,3 km/h (1 Bft)
10.03.2013 18:10 0,4 C 10,9 C 1,9 C 1,2 C 1,2 C 0,8 C 89 % 90 % 0 % 1000,1 hPa 0,0 l/m 2,6 km/h (1 Bft) O-NO 67 0 min 0,0 UV-I -1,2 C 1,2 C 3,9 km/h (1 Bft)
10.03.2013 18:15 0,4 C 10,9 C 1,6 C 0,6 C 0,6 C 0,2 C 89 % 90 % 0 % 1000,1 hPa 0,0 l/m 3,5 km/h (1 Bft) N-NO 22 0 min 0,0 UV-I -1,2 C 0,6 C 8,4 km/h (2 Bft)
10.03.2013 18:20 0,3 C 10,9 C 1,6 C 0,4 C 0,4 C 0,1 C 89 % 90 % 0 % 1000,1 hPa 0,0 l/m 3,4 km/h (1 Bft) N 360 0 min 0,0 UV-I -1,3 C 0,4 C 9,0 km/h (2 Bft)
10.03.2013 18:25 0,2 C 10,9 C 1,5 C 0,8 C 0,8 C 0,6 C 89 % 90 % 0 % 1000,1 hPa 0,0 l/m 2,7 km/h (1 Bft) N-NW 337 0 min 0,0 UV-I -1,4 C 0,8 C 4,8 km/h (1 Bft)
10.03.2013 18:30 0,1 C 11,0 C 1,5 C 1,0 C 1,0 C 0,9 C 89 % 90 % 0 % 1000,1 hPa 0,0 l/m 2,3 km/h (1 Bft) NO 45 0 min 0,0 UV-I -1,5 C 1,0 C 5,0 km/h (1 Bft)
10.03.2013 18:35 0,1 C 11,0 C 1,3 C 0,4 C 0,4 C 0,3 C 89 % 90 % 0 % 1000,4 hPa 0,0 l/m 2,9 km/h (1 Bft) NO 45 0 min 0,0 UV-I -1,5 C 0,4 C 3,5 km/h (1 Bft)
10.03.2013 18:46 -0,3 C 11,0 C 1,1 C 0,1 C 0,1 C 0,4 C 89 % 91 % 0 % 1000,4 hPa 0,0 l/m 3,1 km/h (1 Bft) N 0 0 min 0,0 UV-I -1,9 C 0,1 C 4,8 km/h (1 Bft)
10.03.2013 19:00 -0,3 C 10,9 C 1,0 C 0,4 C 0,4 C 0,7 C 90 % 91 % 0 % 1000,8 hPa 0,0 l/m 2,3 km/h (1 Bft) O-NO 67 0 min 0,0 UV-I -1,7 C 0,4 C 5,3 km/h (1 Bft)
10.03.2013 19:05 -0,5 C 10,9 C 0,9 C -0,1 C -0,1 C 0,4 C 89 % 91 % 0 % 1000,8 hPa 0,0 l/m 2,9 km/h (1 Bft) O-SO 112 0 min 0,0 UV-I -2,1 C -0,1 C 3,1 km/h (1 Bft)
10.03.2013 19:10 -0,6 C 10,9 C 0,9 C -0,2 C -0,2 C 0,4 C 90 % 91 % 0 % 1000,8 hPa 0,0 l/m 3,1 km/h (1 Bft) N-NW 337 0 min 0,0 UV-I -2,0 C -0,2 C 7,1 km/h (2 Bft)
10.03.2013 19:15 -0,7 C 10,9 C 0,7 C -0,3 C -0,3 C 0,4 C 90 % 91 % 0 % 1000,9 hPa 0,0 l/m 3,1 km/h (1 Bft) N-NW 337 0 min 0,0 UV-I -2,1 C -0,3 C 2,4 km/h (1 Bft)
10.03.2013 19:20 -0,7 C 10,9 C 0,6 C -0,6 C -0,6 C 0,1 C 90 % 91 % 0 % 1000,9 hPa 0,0 l/m 3,4 km/h (1 Bft) N-NO 22 0 min 0,0 UV-I -2,1 C -0,6 C 2,7 km/h (1 Bft)
10.03.2013 19:25 -0,7 C 10,9 C 0,7 C -0,4 C -0,4 C 0,3 C 90 % 91 % 0 % 1000,9 hPa 0,0 l/m 2,9 km/h (1 Bft) NO 45 0 min 0,0 UV-I -2,1 C -0,4 C 1,8 km/h (1 Bft)
10.03.2013 19:30 -0,7 C 10,9 C 0,5 C -0,6 C -0,6 C 0,1 C 90 % 91 % 0 % 1000,9 hPa 0,0 l/m 3,2 km/h (1 Bft) O-NO 67 0 min 0,0 UV-I -2,1 C -0,6 C 0,0 km/h (0 Bft)
10.03.2013 19:35 -0,9 C 10,9 C 0,4 C -1,0 C -1,1 C 0,0 C 90 % 91 % 0 % 1000,8 hPa 0,0 l/m 3,9 km/h (1 Bft) N-NW 337 0 min 0,0 UV-I -2,3 C -1,1 C 8,4 km/h (2 Bft)
10.03.2013 19:40 -1,0 C 10,9 C 0,3 C -1,3 C -1,8 C 0,0 C 90 % 91 % 0 % 1000,8 hPa 0,0 l/m 4,8 km/h (1 Bft) N-NO 22 0 min 0,0 UV-I -2,4 C -3,5 C 10,9 km/h (2 Bft)
10.03.2013 19:45 -1,1 C 10,8 C 0,3 C -1,4 C -2,0 C 0,0 C 90 % 91 % 0 % 1000,8 hPa 0,0 l/m 5,3 km/h (1 Bft) NW 315 0 min 0,0 UV-I -2,5 C -4,0 C 3,9 km/h (1 Bft)
10.03.2013 19:50 -1,1 C 10,8 C 0,1 C -1,3 C -1,8 C 0,0 C 90 % 91 % 0 % 1000,8 hPa 0,0 l/m 5,0 km/h (1 Bft) N-NO 22 0 min 0,0 UV-I -2,5 C -3,6 C 9,8 km/h (2 Bft)
10.03.2013 19:55 -1,1 C 10,8 C 0,1 C -1,1 C -1,2 C 0,0 C 90 % 91 % 0 % 1000,8 hPa 0,0 l/m 3,9 km/h (1 Bft) O-NO 67 0 min 0,0 UV-I -2,5 C -1,2 C 6,4 km/h (2 Bft)
10.03.2013 20:00 -1,2 C 10,8 C 0,0 C -1,3 C -1,4 C 0,0 C 90 % 91 % 0 % 1000,8 hPa 0,0 l/m 4,2 km/h (1 Bft) O-NO 67 0 min 0,0 UV-I -2,6 C -1,4 C 2,6 km/h (1 Bft)
10.03.2013 20:05 -1,3 C 10,8 C 0,0 C -1,3 C -1,3 C 0,0 C 90 % 91 % 0 % 1000,8 hPa 0,0 l/m 3,9 km/h (1 Bft) O-NO 67 0 min 0,0 UV-I -2,7 C -1,3 C 6,4 km/h (2 Bft)
10.03.2013 20:10 -1,1 C 10,8 C 0,0 C -0,4 C -0,4 C 0,7 C 90 % 91 % 0 % 1000,8 hPa 0,0 l/m 2,6 km/h (1 Bft) O-NO 67 0 min 0,0 UV-I -2,5 C -0,4 C 2,6 km/h (1 Bft)
10.03.2013 20:15 -1,1 C 10,8 C 0,0 C -0,9 C -0,9 C 0,2 C 90 % 91 % 0 % 1000,7 hPa 0,0 l/m 3,1 km/h (1 Bft) O-NO 67 0 min 0,0 UV-I -2,5 C -0,9 C 6,8 km/h (2 Bft)
10.03.2013 20:20 -1,3 C 10,8 C 0,1 C -1,2 C -1,2 C 0,1 C 90 % 91 % 0 % 1000,7 hPa 0,0 l/m 3,5 km/h (1 Bft) O-NO 67 0 min 0,0 UV-I -2,7 C -1,2 C 2,4 km/h (1 Bft)
10.03.2013 20:25 -1,3 C 10,8 C 0,0 C -0,9 C -0,9 C 0,4 C 90 % 91 % 0 % 1000,7 hPa 0,0 l/m 3,2 km/h (1 Bft) O-NO 67 0 min 0,0 UV-I -2,7 C -0,9 C 10,6 km/h (2 Bft)
10.03.2013 20:30 -1,3 C 10,8 C 0,0 C -0,9 C -0,9 C 0,4 C 90 % 91 % 0 % 1000,7 hPa 0,0 l/m 3,1 km/h (1 Bft) O-NO 67 0 min 0,0 UV-I -2,7 C -0,9 C 9,2 km/h (2 Bft)
10.03.2013 20:35 -1,4 C 10,7 C -0,1 C -1,7 C -2,2 C 0,0 C 91 % 91 % 0 % 1000,8 hPa 0,0 l/m 5,1 km/h (1 Bft) O-NO 67 0 min 0,0 UV-I -2,7 C -4,1 C 11,7 km/h (2 Bft)
10.03.2013 20:40 -1,5 C 10,7 C -0,2 C -1,9 C -2,8 C 0,0 C 90 % 91 % 0 % 1000,8 hPa 0,0 l/m 5,8 km/h (2 Bft) O-NO 67 0 min 0,0 UV-I -2,9 C -5,2 C 7,4 km/h (2 Bft)
10.03.2013 20:45 -1,5 C 10,7 C -0,1 C -1,9 C -2,6 C 0,0 C 91 % 91 % 0 % 1000,8 hPa 0,0 l/m 5,3 km/h (1 Bft) O-NO 67 0 min 0,0 UV-I -2,8 C -4,7 C 5,0 km/h (1 Bft)
10.03.2013 20:50 -1,5 C 10,7 C -0,2 C -1,6 C -1,7 C 0,0 C 91 % 91 % 0 % 1000,8 hPa 0,0 l/m 4,2 km/h (1 Bft) O-NO 67 0 min 0,0 UV-I -2,8 C -1,7 C 3,9 km/h (1 Bft)
10.03.2013 20:55 -1,5 C 10,7 C -0,1 C -0,3 C -0,3 C 1,2 C 91 % 91 % 0 % 1001,8 hPa 0,0 l/m 2,1 km/h (1 Bft) O-NO 67 0 min 0,0 UV-I -2,8 C -0,3 C 0,0 km/h (0 Bft)
10.03.2013 21:00 -1,3 C 10,7 C -0,1 C -0,2 C -0,2 C 1,1 C 91 % 91 % 0 % 1001,8 hPa 0,0 l/m 1,4 km/h (1 Bft) O-NO 67 0 min 0,0 UV-I -2,6 C -0,2 C 2,9 km/h (1 Bft)
10.03.2013 21:05 -1,5 C 10,7 C -0,3 C -0,5 C -0,5 C 1,0 C 91 % 91 % 0 % 1001,8 hPa 0,0 l/m 1,4 km/h (1 Bft) O-NO 67 0 min 0,0 UV-I -2,8 C -0,5 C 2,6 km/h (1 Bft)
10.03.2013 21:10 -1,6 C 10,7 C -0,4 C -1,1 C -1,1 C 0,5 C 91 % 91 % 0 % 1001,8 hPa 0,0 l/m 2,7 km/h (1 Bft) O-NO 67 0 min 0,0 UV-I -2,9 C -1,1 C 5,0 km/h (1 Bft)
10.03.2013 21:15 -1,7 C 10,7 C -0,5 C -1,8 C -2,1 C 0,0 C 90 % 91 % 0 % 1001,9 hPa 0,0 l/m 4,0 km/h (1 Bft) O-NO 67 0 min 0,0 UV-I -3,1 C -2,1 C 4,2 km/h (1 Bft)
10.03.2013 21:20 -1,8 C 10,6 C -0,5 C -2,0 C -2,3 C 0,0 C 90 % 91 % 0 % 1001,9 hPa 0,0 l/m 4,0 km/h (1 Bft) O-NO 67 0 min 0,0 UV-I -3,2 C -2,3 C 3,2 km/h (1 Bft)
10.03.2013 21:25 -1,7 C 10,6 C -0,7 C -1,7 C -1,8 C 0,0 C 90 % 91 % 0 % 1001,9 hPa 0,0 l/m 2,9 km/h (1 Bft) O-NO 67 0 min 0,0 UV-I -3,1 C -1,8 C 1,8 km/h (1 Bft)
10.03.2013 21:30 -2,0 C 10,6 C -0,8 C -1,8 C -1,8 C 0,2 C 90 % 91 % 0 % 1001,9 hPa 0,0 l/m 2,9 km/h (1 Bft) O-NO 67 0 min 0,0 UV-I -3,4 C -1,8 C 5,6 km/h (1 Bft)
10.03.2013 21:35 -2,1 C 10,6 C -0,9 C -2,3 C -2,7 C 0,0 C 90 % 91 % 0 % 1002,2 hPa 0,0 l/m 3,9 km/h (1 Bft) O-NO 67 0 min 0,0 UV-I -3,5 C -2,7 C 9,5 km/h (2 Bft)
10.03.2013 21:40 -2,1 C 10,6 C -0,9 C -2,3 C -2,7 C 0,0 C 90 % 91 % 0 % 1002,2 hPa 0,0 l/m 3,7 km/h (1 Bft) O-NO 67 0 min 0,0 UV-I -3,5 C -2,7 C 4,3 km/h (1 Bft)
10.03.2013 21:45 -2,3 C 10,6 C -1,1 C -2,3 C -2,4 C 0,0 C 89 % 91 % 0 % 1002,2 hPa 0,0 l/m 3,1 km/h (1 Bft) O-NO 67 0 min 0,0 UV-I -3,9 C -2,4 C 0,0 km/h (0 Bft)
10.03.2013 21:50 -2,3 C 10,6 C -1,1 C -2,3 C -2,3 C 0,0 C 89 % 91 % 0 % 1002,2 hPa 0,0 l/m 2,9 km/h (1 Bft) O-NO 67 0 min 0,0 UV-I -3,9 C -2,3 C 0,0 km/h (0 Bft)
10.03.2013 21:55 -2,4 C 10,5 C -1,3 C -2,5 C -2,7 C 0,0 C 89 % 91 % 0 % 1002,4 hPa 0,0 l/m 3,1 km/h (1 Bft) O-NO 67 0 min 0,0 UV-I -4,0 C -2,7 C 3,7 km/h (1 Bft)
10.03.2013 22:00 -2,5 C 10,5 C -1,3 C -2,7 C -3,0 C 0,0 C 89 % 91 % 0 % 1002,4 hPa 0,0 l/m 3,4 km/h (1 Bft) O-NO 67 0 min 0,0 UV-I -4,1 C -3,0 C 4,5 km/h (1 Bft)
10.03.2013 22:05 -2,7 C 10,5 C -1,6 C -3,1 C -3,8 C 0,0 C 89 % 91 % 0 % 1002,4 hPa 0,0 l/m 4,3 km/h (1 Bft) O-NO 67 0 min 0,0 UV-I -4,3 C -3,8 C 7,1 km/h (2 Bft)
10.03.2013 22:10 -2,8 C 10,5 C -1,5 C -3,1 C -3,8 C 0,0 C 89 % 91 % 0 % 1002,4 hPa 0,0 l/m 4,5 km/h (1 Bft) O-NO 67 0 min 0,0 UV-I -4,4 C -3,8 C 4,7 km/h (1 Bft)
10.03.2013 22:15 -2,9 C 10,5 C -1,7 C -3,2 C -3,7 C 0,0 C 89 % 91 % 0 % 1003,0 hPa 0,0 l/m 3,9 km/h (1 Bft) O-NO 67 0 min 0,0 UV-I -4,5 C -3,7 C 5,8 km/h (2 Bft)
10.03.2013 22:20 -3,0 C 10,4 C -1,7 C -3,3 C -4,0 C 0,0 C 89 % 91 % 0 % 1003,0 hPa 0,0 l/m 4,2 km/h (1 Bft) O-NO 67 0 min 0,0 UV-I -4,6 C -4,0 C 4,8 km/h (1 Bft)
10.03.2013 22:25 -3,1 C 10,4 C -1,9 C -3,5 C -4,3 C 0,0 C 89 % 91 % 0 % 1003,0 hPa 0,0 l/m 4,5 km/h (1 Bft) O-NO 67 0 min 0,0 UV-I -4,6 C -4,3 C 4,8 km/h (1 Bft)
10.03.2013 22:30 -3,2 C 10,4 C -2,0 C -3,6 C -4,5 C 0,0 C 89 % 91 % 0 % 1003,0 hPa 0,0 l/m 4,7 km/h (1 Bft) O-NO 67 0 min 0,0 UV-I -4,7 C -6,5 C 4,7 km/h (1 Bft)
10.03.2013 22:35 -3,3 C 10,4 C -2,1 C -3,8 C -4,9 C 0,0 C 89 % 90 % 0 % 1003,1 hPa 0,0 l/m 5,3 km/h (1 Bft) O-NO 67 0 min 0,0 UV-I -4,8 C -7,3 C 12,7 km/h (3 Bft)
10.03.2013 22:40 -3,3 C 10,4 C -2,3 C -4,0 C -5,3 C 0,0 C 89 % 90 % 0 % 1003,1 hPa 0,0 l/m 5,8 km/h (2 Bft) O-NO 67 0 min 0,0 UV-I -4,8 C -8,0 C 4,5 km/h (1 Bft)
10.03.2013 22:45 -3,5 C 10,4 C -2,3 C -4,1 C -5,2 C 0,0 C 88 % 90 % 0 % 1003,1 hPa 0,0 l/m 5,3 km/h (1 Bft) O-NO 67 0 min 0,0 UV-I -5,2 C -7,7 C 7,9 km/h (2 Bft)
10.03.2013 22:50 -3,6 C 10,3 C -2,4 C -4,0 C -4,8 C 0,0 C 89 % 90 % 0 % 1003,1 hPa 0,0 l/m 4,7 km/h (1 Bft) O-NO 67 0 min 0,0 UV-I -5,1 C -6,9 C 3,9 km/h (1 Bft)
10.03.2013 22:55 -3,5 C 10,3 C -2,5 C -4,1 C -5,2 C 0,0 C 89 % 91 % 0 % 1002,2 hPa 0,0 l/m 5,1 km/h (1 Bft) O-NO 67 0 min 0,0 UV-I -5,0 C -7,5 C 6,1 km/h (2 Bft)
10.03.2013 23:00 -3,7 C 10,3 C -2,3 C -3,9 C -4,4 C 0,0 C 89 % 91 % 0 % 1002,2 hPa 0,0 l/m 3,9 km/h (1 Bft) O-NO 67 0 min 0,0 UV-I -5,2 C -4,4 C 3,4 km/h (1 Bft)
10.03.2013 23:05 -3,7 C 10,3 C -2,3 C -3,0 C -3,0 C 0,7 C 89 % 91 % 0 % 1002,2 hPa 0,0 l/m 2,1 km/h (1 Bft) O-NO 67 0 min 0,0 UV-I -5,2 C -3,0 C 2,1 km/h (1 Bft)
10.03.2013 23:10 -3,7 C 10,3 C -2,3 C -3,2 C -3,2 C 0,5 C 89 % 91 % 0 % 1002,2 hPa 0,0 l/m 2,4 km/h (1 Bft) O-NO 67 0 min 0,0 UV-I -5,2 C -3,2 C 2,6 km/h (1 Bft)
10.03.2013 23:15 -3,7 C 10,3 C -2,5 C -4,0 C -4,6 C 0,0 C 89 % 91 % 0 % 1002,2 hPa 0,0 l/m 4,2 km/h (1 Bft) O-NO 67 0 min 0,0 UV-I -5,2 C -4,6 C 6,8 km/h (2 Bft)
10.03.2013 23:20 -3,7 C 10,3 C -2,5 C -4,1 C -4,9 C 0,0 C 89 % 91 % 0 % 1002,2 hPa 0,0 l/m 4,3 km/h (1 Bft) O-NO 67 0 min 0,0 UV-I -5,2 C -4,9 C 3,9 km/h (1 Bft)
10.03.2013 23:25 -3,9 C 10,3 C -2,7 C -4,1 C -4,6 C 0,0 C 89 % 91 % 0 % 1002,2 hPa 0,0 l/m 3,9 km/h (1 Bft) O-NO 67 0 min 0,0 UV-I -5,4 C -4,6 C 6,4 km/h (2 Bft)
10.03.2013 23:30 -4,0 C 10,2 C -2,8 C -4,1 C -4,2 C 0,0 C 89 % 91 % 0 % 1002,2 hPa 0,0 l/m 3,2 km/h (1 Bft) O-NO 67 0 min 0,0 UV-I -5,5 C -4,2 C 3,1 km/h (1 Bft)
10.03.2013 23:35 -4,0 C 10,2 C -2,7 C -3,3 C -3,3 C 0,7 C 89 % 91 % 0 % 1003,2 hPa 0,0 l/m 1,6 km/h (1 Bft) O-NO 67 0 min 0,0 UV-I -5,5 C -3,3 C 0,0 km/h (0 Bft)
10.03.2013 23:40 -3,9 C 10,2 C -2,8 C -3,4 C -3,4 C 0,5 C 89 % 91 % 0 % 1003,2 hPa 0,0 l/m 1,4 km/h (1 Bft) O-NO 67 0 min 0,0 UV-I -5,4 C -3,4 C 3,1 km/h (1 Bft)
10.03.2013 23:45 -4,1 C 10,2 C -2,9 C -3,5 C -3,5 C 0,6 C 89 % 90 % 0 % 1003,2 hPa 0,0 l/m 2,3 km/h (1 Bft) O-NO 67 0 min 0,0 UV-I -5,6 C -3,5 C 4,5 km/h (1 Bft)
10.03.2013 23:50 -4,1 C 10,2 C -2,9 C -3,9 C -3,9 C 0,2 C 89 % 90 % 0 % 1003,2 hPa 0,0 l/m 2,6 km/h (1 Bft) O-NO 67 0 min 0,0 UV-I -5,6 C -3,9 C 2,9 km/h (1 Bft)
10.03.2013 23:55 -4,1 C 10,2 C -2,9 C -3,9 C -3,9 C 0,2 C 89 % 90 % 0 % 1002,8 hPa 0,0 l/m 2,6 km/h (1 Bft) O-NO 67 0 min 0,0 UV-I -5,6 C -3,9 C 0,0 km/h (0 Bft)
_ Min-Zeit 23:45 09:50 23:45 22:45 22:40 00:10 10:50 13:55 00:00 08:35 - 00:00 - - - 00:00 23:45 22:40 00:00
Minimum _ -4,1 C 9,4 C -2,9 C -4,1 C -5,3 C 0,0 C 78 % 87 % 0 % 997,9 hPa - 0,0 km/h (0 Bft) - - - 0,0 UV-I -5,6 C -8,0 C 0,0 km/h (0 Bft)
_ Max-Zeit 11:00 17:35 10:55 11:45 11:45 12:20 07:00 06:35 11:45 23:35 03:25 10:35 - - 07:00 12:20 10:25 11:45 09:55
Maximum _ 9,2 C 11,0 C 9,2 C 12,2 C 12,2 C 4,4 C 93 % 94 % 100 % 1003,2 hPa 0,7 l/m 11,7 km/h
S (2 Bft)
- - 14 min 1,0 UV-I 5,7 C 12,2 C 22,0 km/h
W-SW (4 Bft)
Durchschnitt _ 2,0 C 10,1 C 3,0 C 3,2 C 3,1 C 1,2 C 89 % 91 % 25 % 999,9 hPa #0,7 l/m 2,7 km/h (1 Bft) O-NO - #4:35 h 0,5 UV-I 0,3 C 2,9 C 3,8 km/h (1 Bft)
2013 www.wetterstation-wechselburg.de